Time;durP1;ratioP1;P1;durP2;ratioP2;P2;SDS_P1;SDS_P2;PMS_P1;PMS_P2;Temp;Humidity;BMP_temperature;BMP_pressure;BME280_temperature;BME280_humidity;BME280_pressure;Samples;Min_cycle;Max_cycle;Signal;HPM_P1;HPM_P2
2022/03/11 00:01:52;;;;;;;19.80;6.75;;;;;;;;;;4985015;28;20616;-83
2022/03/11 00:04:19;;;;;;;17.85;6.95;;;;;;;;;;4988202;28;20033;-83
2022/03/11 00:06:45;;;;;;;15.82;6.20;;;;;;;;;;4987023;28;20022;-83
2022/03/11 00:09:12;;;;;;;13.35;6.38;;;;;;;;;;4987778;28;20029;-83
2022/03/11 00:11:38;;;;;;;15.18;6.60;;;;;;;;;;4987200;28;20378;-83
2022/03/11 00:14:04;;;;;;;16.80;6.25;;;;;;;;;;4989268;28;20045;-83
2022/03/11 00:16:31;;;;;;;12.90;6.63;;;;;;;;;;5007146;28;20050;-83
2022/03/11 00:18:57;;;;;;;22.83;6.47;;;;;;;;;;5004350;28;20125;-83
2022/03/11 00:21:23;;;;;;;15.60;7.13;;;;;;;;;;5000574;28;20045;-83
2022/03/11 00:23:49;;;;;;;20.27;7.38;;;;;;;;;;5005568;28;20022;-83
2022/03/11 00:26:15;;;;;;;17.08;6.93;;;;;;;;;;4988348;28;20030;-83
2022/03/11 00:28:41;;;;;;;11.52;5.93;;;;;;;;;;4988403;28;20037;-83
2022/03/11 00:31:07;;;;;;;16.55;6.93;;;;;;;;;;4988044;28;20509;-83
2022/03/11 00:33:34;;;;;;;13.95;5.43;;;;;;;;;;4991108;28;20524;-83
2022/03/11 00:36:00;;;;;;;15.18;6.57;;;;;;;;;;4989184;28;20022;-84
2022/03/11 00:38:26;;;;;;;14.50;7.05;;;;;;;;;;4998198;28;20101;-82
2022/03/11 00:40:56;;;;;;;14.55;6.90;;;;;;;;;;4985609;28;20032;-83
2022/03/11 00:43:25;;;;;;;15.45;6.43;;;;;;;;;;4986053;28;20482;-83
2022/03/11 00:45:52;;;;;;;14.80;6.15;;;;;;;;;;4986902;28;20116;-83
2022/03/11 00:48:18;;;;;;;13.50;6.88;;;;;;;;;;5004595;28;20038;-83
2022/03/11 00:50:44;;;;;;;11.30;6.35;;;;;;;;;;4993737;28;20046;-83
2022/03/11 00:53:11;;;;;;;15.20;6.93;;;;;;;;;;4988456;28;20038;-83
2022/03/11 00:55:37;;;;;;;15.43;7.43;;;;;;;;;;5004264;28;20057;-83
2022/03/11 00:58:03;;;;;;;16.13;7.03;;;;;;;;;;4987009;28;20447;-83
2022/03/11 01:00:29;;;;;;;17.13;7.80;;;;;;;;;;4997548;28;20034;-83
2022/03/11 01:02:55;;;;;;;15.00;6.55;;;;;;;;;;4989750;28;20121;-84
2022/03/11 01:05:24;;;;;;;22.45;8.35;;;;;;;;;;4985173;28;20129;-83
2022/03/11 01:07:51;;;;;;;18.05;7.72;;;;;;;;;;4991908;28;20030;-83
2022/03/11 01:10:17;;;;;;;14.20;7.25;;;;;;;;;;4987194;28;20505;-83
2022/03/11 01:12:43;;;;;;;17.55;7.32;;;;;;;;;;5003077;28;20045;-83
2022/03/11 01:15:10;;;;;;;14.93;7.22;;;;;;;;;;5003237;28;20029;-83
2022/03/11 01:17:37;;;;;;;17.30;7.50;;;;;;;;;;4990405;28;20054;-83
2022/03/11 01:20:04;;;;;;;17.20;7.63;;;;;;;;;;4968798;28;20026;-83
2022/03/11 01:22:31;;;;;;;19.02;7.22;;;;;;;;;;4966410;28;20516;-83
2022/03/11 01:24:57;;;;;;;15.30;6.55;;;;;;;;;;4970000;28;20030;-83
2022/03/11 01:27:23;;;;;;;15.82;6.50;;;;;;;;;;4981244;28;20117;-83
2022/03/11 01:29:49;;;;;;;20.20;8.07;;;;;;;;;;4980660;28;20130;-83
2022/03/11 01:32:15;;;;;;;14.82;7.03;;;;;;;;;;4969536;28;20030;-83
2022/03/11 01:34:41;;;;;;;19.38;8.25;;;;;;;;;;4992350;28;20030;-83
2022/03/11 01:37:07;;;;;;;23.00;8.57;;;;;;;;;;4967659;28;20319;-84
2022/03/11 01:39:34;;;;;;;22.52;8.50;;;;;;;;;;4988244;28;20105;-83
2022/03/11 01:42:00;;;;;;;17.08;8.50;;;;;;;;;;4989194;28;20031;-83
2022/03/11 01:44:26;;;;;;;18.13;7.78;;;;;;;;;;4968497;28;20031;-83
2022/03/11 01:46:53;;;;;;;19.48;8.13;;;;;;;;;;4966297;28;20055;-83
2022/03/11 01:49:19;;;;;;;15.02;6.97;;;;;;;;;;4982381;28;20034;-83
2022/03/11 01:51:45;;;;;;;18.25;8.60;;;;;;;;;;4965726;28;20061;-84
2022/03/11 01:54:12;;;;;;;21.77;8.30;;;;;;;;;;4963584;28;20065;-83
2022/03/11 01:56:38;;;;;;;18.38;8.40;;;;;;;;;;4965092;28;20041;-83
2022/03/11 01:59:05;;;;;;;18.17;8.90;;;;;;;;;;4960695;28;20073;-83
2022/03/11 02:01:31;;;;;;;22.38;10.32;;;;;;;;;;4983982;28;20065;-84
2022/03/11 02:04:00;;;;;;;18.42;9.38;;;;;;;;;;4961631;28;20053;-83
2022/03/11 02:06:27;;;;;;;24.88;9.88;;;;;;;;;;4966876;28;20031;-83
2022/03/11 02:08:54;;;;;;;24.45;10.00;;;;;;;;;;4970660;28;20066;-83
2022/03/11 02:11:21;;;;;;;28.83;11.50;;;;;;;;;;4967097;28;20026;-83
2022/03/11 02:13:58;;;;;;;25.25;11.30;;;;;;;;;;4965348;28;20026;-83
2022/03/11 02:16:25;;;;;;;20.33;9.52;;;;;;;;;;4973930;28;20049;-83
2022/03/11 02:18:51;;;;;;;24.33;9.85;;;;;;;;;;4992336;28;20031;-83
2022/03/11 02:21:18;;;;;;;25.33;11.10;;;;;;;;;;4981430;28;20101;-83
2022/03/11 02:23:48;;;;;;;26.92;10.68;;;;;;;;;;4999199;28;20058;-83
2022/03/11 02:26:15;;;;;;;25.60;10.38;;;;;;;;;;4986138;28;20129;-83
2022/03/11 02:28:41;;;;;;;29.38;12.45;;;;;;;;;;4982358;28;20114;-83
2022/03/11 02:31:07;;;;;;;29.15;10.25;;;;;;;;;;4990687;28;20077;-83
2022/03/11 02:33:34;;;;;;;26.77;11.82;;;;;;;;;;4989811;28;20379;-83
2022/03/11 02:36:00;;;;;;;32.03;11.13;;;;;;;;;;5003944;28;20033;-83
2022/03/11 02:38:27;;;;;;;23.67;10.85;;;;;;;;;;4987083;28;20428;-83
2022/03/11 02:40:53;;;;;;;28.60;13.02;;;;;;;;;;4987090;28;20507;-83
2022/03/11 02:43:19;;;;;;;37.85;12.73;;;;;;;;;;4986141;28;20030;-83
2022/03/11 02:45:46;;;;;;;26.05;10.13;;;;;;;;;;4987105;28;20060;-83
2022/03/11 02:48:12;;;;;;;30.05;13.30;;;;;;;;;;5006167;28;20033;-83
2022/03/11 02:50:38;;;;;;;26.38;11.35;;;;;;;;;;4986144;28;20030;-83
2022/03/11 02:53:04;;;;;;;28.98;11.82;;;;;;;;;;5004640;28;20130;-84
2022/03/11 02:55:30;;;;;;;27.33;12.00;;;;;;;;;;5004119;28;20438;-83
2022/03/11 02:57:56;;;;;;;30.55;13.05;;;;;;;;;;4989983;28;20501;-83
2022/03/11 03:00:22;;;;;;;28.92;12.45;;;;;;;;;;4985709;28;20033;-83
2022/03/11 03:02:48;;;;;;;28.67;12.60;;;;;;;;;;5005184;28;20117;-83
2022/03/11 03:05:15;;;;;;;28.83;11.52;;;;;;;;;;4991664;28;20076;-83
2022/03/11 03:07:41;;;;;;;32.75;13.40;;;;;;;;;;4987245;28;20154;-83
2022/03/11 03:10:08;;;;;;;28.95;11.48;;;;;;;;;;4986504;28;20037;-83
2022/03/11 03:12:34;;;;;;;30.27;13.70;;;;;;;;;;5005055;28;20036;-83
2022/03/11 03:15:07;;;;;;;26.00;12.43;;;;;;;;;;4990347;28;20026;-83
2022/03/11 03:17:34;;;;;;;26.65;12.15;;;;;;;;;;4985076;28;20056;-83
2022/03/11 03:20:00;;;;;;;33.75;12.27;;;;;;;;;;5002000;28;20034;-83
2022/03/11 03:22:26;;;;;;;36.53;13.45;;;;;;;;;;5003888;28;20045;-83
2022/03/11 03:24:53;;;;;;;30.85;13.48;;;;;;;;;;4986808;28;20018;-83
2022/03/11 03:27:19;;;;;;;31.75;14.05;;;;;;;;;;4984164;28;20031;-83
2022/03/11 03:29:45;;;;;;;34.75;13.55;;;;;;;;;;4996749;28;20030;-83
2022/03/11 03:32:11;;;;;;;29.33;13.98;;;;;;;;;;4984098;28;20048;-83
2022/03/11 03:34:38;;;;;;;32.72;14.45;;;;;;;;;;4987890;28;20041;-83
2022/03/11 03:37:07;;;;;;;27.77;13.40;;;;;;;;;;4999366;28;20029;-84
2022/03/11 03:39:33;;;;;;;35.75;15.07;;;;;;;;;;4986211;28;20026;-83
2022/03/11 03:41:59;;;;;;;33.80;13.45;;;;;;;;;;4986384;28;20084;-84
2022/03/11 03:44:25;;;;;;;40.30;16.00;;;;;;;;;;4987637;28;20077;-83
2022/03/11 03:46:51;;;;;;;38.00;13.75;;;;;;;;;;5003765;28;20064;-83
2022/03/11 03:49:17;;;;;;;40.97;15.75;;;;;;;;;;4986411;28;20146;-83
2022/03/11 03:51:44;;;;;;;39.60;14.63;;;;;;;;;;4999484;28;20033;-83
2022/03/11 03:54:10;;;;;;;32.35;14.60;;;;;;;;;;4999270;28;20034;-83
2022/03/11 03:56:37;;;;;;;38.53;16.08;;;;;;;;;;4990623;28;20033;-83
2022/03/11 03:59:07;;;;;;;41.08;16.20;;;;;;;;;;5000723;28;20034;-83
2022/03/11 04:01:34;;;;;;;37.83;15.68;;;;;;;;;;5001693;28;20038;-83
2022/03/11 04:04:00;;;;;;;34.50;15.10;;;;;;;;;;5003323;28;20026;-83
2022/03/11 04:06:28;;;;;;;32.70;13.15;;;;;;;;;;4987091;28;20057;-83
2022/03/11 04:09:01;;;;;;;34.08;13.20;;;;;;;;;;4995331;28;20037;-83
2022/03/11 04:11:28;;;;;;;26.33;12.18;;;;;;;;;;4986490;28;20350;-84
2022/03/11 04:13:58;;;;;;;38.78;14.00;;;;;;;;;;5001215;28;20077;-84
2022/03/11 04:16:24;;;;;;;30.05;13.32;;;;;;;;;;5001274;28;20041;-83
2022/03/11 04:18:51;;;;;;;33.95;13.88;;;;;;;;;;5002094;28;20579;-83
2022/03/11 04:21:18;;;;;;;32.88;13.82;;;;;;;;;;4984950;28;20038;-83
2022/03/11 04:23:44;;;;;;;37.88;16.40;;;;;;;;;;4986427;28;20030;-83
2022/03/11 04:26:10;;;;;;;32.78;15.90;;;;;;;;;;4983568;28;20096;-83
2022/03/11 04:28:37;;;;;;;38.45;15.68;;;;;;;;;;4987016;28;20389;-83
2022/03/11 04:31:10;;;;;;;42.33;15.60;;;;;;;;;;4990917;28;20022;-83
2022/03/11 04:33:37;;;;;;;33.97;15.25;;;;;;;;;;4983904;28;20030;-83
2022/03/11 04:36:04;;;;;;;33.78;16.00;;;;;;;;;;4989919;28;20038;-83
2022/03/11 04:38:30;;;;;;;37.53;16.50;;;;;;;;;;5001209;28;20033;-84
2022/03/11 04:40:56;;;;;;;36.92;16.55;;;;;;;;;;4991714;28;20067;-83
2022/03/11 04:43:22;;;;;;;39.10;16.02;;;;;;;;;;4987362;28;20497;-83
2022/03/11 04:45:49;;;;;;;36.35;15.02;;;;;;;;;;4984937;28;20065;-83
2022/03/11 04:48:15;;;;;;;36.33;15.82;;;;;;;;;;5000622;28;20113;-83
2022/03/11 04:50:41;;;;;;;26.25;12.52;;;;;;;;;;4986107;28;20093;-83
2022/03/11 04:53:07;;;;;;;44.58;16.98;;;;;;;;;;4984837;28;20033;-83
2022/03/11 04:55:33;;;;;;;35.10;14.77;;;;;;;;;;5000631;28;20521;-83
2022/03/11 04:57:59;;;;;;;33.78;15.82;;;;;;;;;;4986519;28;20067;-83
2022/03/11 05:00:25;;;;;;;30.58;13.35;;;;;;;;;;4984859;28;20089;-83
2022/03/11 05:02:52;;;;;;;32.38;13.98;;;;;;;;;;4999591;28;20445;-83
2022/03/11 05:05:18;;;;;;;34.42;13.93;;;;;;;;;;4999443;28;20060;-83
2022/03/11 05:07:44;;;;;;;31.38;14.27;;;;;;;;;;4975673;28;20031;-83
2022/03/11 05:10:11;;;;;;;35.15;13.65;;;;;;;;;;4997729;28;20037;-83
2022/03/11 05:12:37;;;;;;;34.97;14.77;;;;;;;;;;4982194;28;20129;-83
2022/03/11 05:15:04;;;;;;;36.65;14.05;;;;;;;;;;5002302;28;20523;-83
2022/03/11 05:17:30;;;;;;;42.25;16.58;;;;;;;;;;4986256;28;20050;-83
2022/03/11 05:19:56;;;;;;;37.72;16.05;;;;;;;;;;4988212;28;20497;-83
2022/03/11 05:22:22;;;;;;;36.45;14.10;;;;;;;;;;5002954;28;20596;-83
2022/03/11 05:24:48;;;;;;;35.63;15.18;;;;;;;;;;4998610;28;20029;-83
2022/03/11 05:27:15;;;;;;;36.88;14.18;;;;;;;;;;4982989;28;20059;-83
2022/03/11 05:29:41;;;;;;;34.58;14.85;;;;;;;;;;5000322;28;20038;-82
2022/03/11 05:32:07;;;;;;;34.97;14.70;;;;;;;;;;4997081;28;20437;-84
2022/03/11 05:34:41;;;;;;;33.58;15.27;;;;;;;;;;4975714;28;20072;-83
2022/03/11 05:37:08;;;;;;;34.15;16.13;;;;;;;;;;4983330;28;23168;-83
2022/03/11 05:39:34;;;;;;;36.25;13.95;;;;;;;;;;4979741;28;20041;-83
2022/03/11 05:42:00;;;;;;;26.08;10.30;;;;;;;;;;4987370;28;20493;-83
2022/03/11 05:44:26;;;;;;;36.30;14.45;;;;;;;;;;4986122;28;20441;-83
2022/03/11 05:46:53;;;;;;;39.83;13.60;;;;;;;;;;4986482;28;20528;-83
2022/03/11 05:49:19;;;;;;;39.40;15.40;;;;;;;;;;4972616;28;20026;-83
2022/03/11 05:51:45;;;;;;;35.10;14.63;;;;;;;;;;4985190;28;20081;-83
2022/03/11 05:54:12;;;;;;;29.08;12.68;;;;;;;;;;5000011;28;20048;-83
2022/03/11 05:56:38;;;;;;;33.15;14.60;;;;;;;;;;4987337;28;20042;-83
2022/03/11 05:59:04;;;;;;;31.08;14.48;;;;;;;;;;5002201;28;20029;-83
2022/03/11 06:01:34;;;;;;;33.55;16.05;;;;;;;;;;4987942;28;20037;-83
2022/03/11 06:04:01;;;;;;;30.15;13.00;;;;;;;;;;4999432;28;20470;-84
2022/03/11 06:06:28;;;;;;;37.72;14.95;;;;;;;;;;4984599;28;20398;-82
2022/03/11 06:08:54;;;;;;;32.78;13.10;;;;;;;;;;4983706;28;20021;-83
2022/03/11 06:11:21;;;;;;;36.50;13.93;;;;;;;;;;4983176;28;20030;-83
2022/03/11 06:13:47;;;;;;;34.67;15.18;;;;;;;;;;4998956;28;20647;-83
2022/03/11 06:16:14;;;;;;;32.95;14.75;;;;;;;;;;4978488;28;20031;-83
2022/03/11 06:18:40;;;;;;;40.67;15.43;;;;;;;;;;4981493;28;20076;-83
2022/03/11 06:21:06;;;;;;;31.17;13.45;;;;;;;;;;5003270;28;20061;-83
2022/03/11 06:23:32;;;;;;;34.05;14.13;;;;;;;;;;4987449;28;20092;-83
2022/03/11 06:25:59;;;;;;;36.05;11.05;;;;;;;;;;4999917;28;20436;-83
2022/03/11 06:28:25;;;;;;;29.83;13.85;;;;;;;;;;4986596;28;20029;-84
2022/03/11 06:30:51;;;;;;;29.63;13.70;;;;;;;;;;5000591;28;20427;-83
2022/03/11 06:33:17;;;;;;;43.53;13.95;;;;;;;;;;4990586;28;20038;-83
2022/03/11 06:35:43;;;;;;;36.17;15.35;;;;;;;;;;4989311;28;20338;-82
2022/03/11 06:38:09;;;;;;;29.83;13.20;;;;;;;;;;5002657;28;20034;-83
2022/03/11 06:40:35;;;;;;;34.22;13.80;;;;;;;;;;5002469;28;20034;-83
2022/03/11 06:43:02;;;;;;;43.25;14.60;;;;;;;;;;4997881;28;20141;-83
2022/03/11 06:45:28;;;;;;;25.52;10.70;;;;;;;;;;4983682;28;20033;-82
2022/03/11 06:47:55;;;;;;;34.05;12.75;;;;;;;;;;4996485;28;20034;-83
2022/03/11 06:50:21;;;;;;;35.40;14.90;;;;;;;;;;4998720;28;20042;-83
2022/03/11 06:52:47;;;;;;;27.33;12.75;;;;;;;;;;4982363;28;20034;-83
2022/03/11 06:55:13;;;;;;;36.65;14.32;;;;;;;;;;4984448;28;20050;-82
2022/03/11 06:57:39;;;;;;;31.10;13.27;;;;;;;;;;4982239;28;20034;-83
2022/03/11 07:00:06;;;;;;;29.23;11.15;;;;;;;;;;4998640;28;20042;-83
2022/03/11 07:02:32;;;;;;;32.58;15.63;;;;;;;;;;4995435;28;20538;-83
2022/03/11 07:04:58;;;;;;;36.90;15.27;;;;;;;;;;4986154;28;20064;-83
2022/03/11 07:07:28;;;;;;;29.25;12.30;;;;;;;;;;4988025;28;20037;-82
2022/03/11 07:09:54;;;;;;;28.70;11.63;;;;;;;;;;4996615;28;20030;-83
2022/03/11 07:12:21;;;;;;;31.60;12.10;;;;;;;;;;4984824;28;20034;-83
2022/03/11 07:14:48;;;;;;;36.80;14.05;;;;;;;;;;5000786;28;20133;-83
2022/03/11 07:17:14;;;;;;;43.88;14.70;;;;;;;;;;4999448;28;20137;-83
2022/03/11 07:19:40;;;;;;;24.70;12.18;;;;;;;;;;4988621;28;20042;-83
2022/03/11 07:22:07;;;;;;;35.90;12.65;;;;;;;;;;4982355;28;20065;-83
2022/03/11 07:24:33;;;;;;;35.42;13.10;;;;;;;;;;4988941;28;20097;-83
2022/03/11 07:26:59;;;;;;;29.40;13.00;;;;;;;;;;4999445;28;20034;-82
2022/03/11 07:29:26;;;;;;;19.73;9.80;;;;;;;;;;4991664;28;20060;-83
2022/03/11 07:31:52;;;;;;;28.23;10.60;;;;;;;;;;4984939;28;20152;-83
2022/03/11 07:34:18;;;;;;;26.27;11.15;;;;;;;;;;5000106;28;20129;-84
2022/03/11 07:36:44;;;;;;;25.25;12.80;;;;;;;;;;5001082;28;20061;-83
2022/03/11 07:39:10;;;;;;;26.98;12.35;;;;;;;;;;4982470;28;20088;-83
2022/03/11 07:41:37;;;;;;;30.75;14.40;;;;;;;;;;4985304;28;20054;-82
2022/03/11 07:44:04;;;;;;;30.90;11.98;;;;;;;;;;4998936;28;20057;-83
2022/03/11 07:46:30;;;;;;;28.67;13.48;;;;;;;;;;4983714;28;20030;-83
2022/03/11 07:48:57;;;;;;;22.02;10.95;;;;;;;;;;5001965;28;20041;-83
2022/03/11 07:51:25;;;;;;;34.03;13.27;;;;;;;;;;4981977;28;20045;-82
2022/03/11 07:53:51;;;;;;;21.73;11.30;;;;;;;;;;5002885;28;20126;-83
2022/03/11 07:56:17;;;;;;;37.67;12.68;;;;;;;;;;4983581;28;20393;-83
2022/03/11 07:58:43;;;;;;;31.13;14.98;;;;;;;;;;4983453;28;20430;-83
2022/03/11 08:01:10;;;;;;;26.27;13.30;;;;;;;;;;5000355;28;20452;-83
2022/03/11 08:03:37;;;;;;;28.52;12.15;;;;;;;;;;4985141;28;20050;-83
2022/03/11 08:06:04;;;;;;;29.90;12.20;;;;;;;;;;5001685;28;20034;-83
2022/03/11 08:08:36;;;;;;;35.75;14.25;;;;;;;;;;4983814;28;20034;-83
2022/03/11 08:11:03;;;;;;;24.40;11.68;;;;;;;;;;5003205;28;20068;-83
2022/03/11 08:13:29;;;;;;;26.20;11.23;;;;;;;;;;5002591;28;20045;-84
2022/03/11 08:15:55;;;;;;;29.63;13.15;;;;;;;;;;4987137;28;20034;-83
2022/03/11 08:18:21;;;;;;;25.95;13.15;;;;;;;;;;4985680;28;20077;-83
2022/03/11 08:20:48;;;;;;;26.02;13.32;;;;;;;;;;5002730;28;20030;-83
2022/03/11 08:23:14;;;;;;;20.23;9.50;;;;;;;;;;4986130;28;20048;-83
2022/03/11 08:25:40;;;;;;;30.70;14.32;;;;;;;;;;5002032;28;20057;-83
2022/03/11 08:28:10;;;;;;;26.10;13.05;;;;;;;;;;5002148;28;20113;-83
2022/03/11 08:30:36;;;;;;;33.22;14.38;;;;;;;;;;5003859;28;20029;-83
2022/03/11 08:33:02;;;;;;;22.88;12.35;;;;;;;;;;4985773;28;20052;-83
2022/03/11 08:35:29;;;;;;;27.83;13.73;;;;;;;;;;4981841;28;20038;-84
2022/03/11 08:37:55;;;;;;;25.63;12.02;;;;;;;;;;5000824;28;20502;-83
2022/03/11 08:40:23;;;;;;;26.73;12.43;;;;;;;;;;5002811;28;20042;-83
2022/03/11 08:42:50;;;;;;;32.80;15.05;;;;;;;;;;4999706;28;20028;-83
2022/03/11 08:45:16;;;;;;;32.13;13.95;;;;;;;;;;4998431;28;20477;-83
2022/03/11 08:47:42;;;;;;;25.58;14.13;;;;;;;;;;4984559;28;20072;-83
2022/03/11 08:50:09;;;;;;;31.92;14.15;;;;;;;;;;4983613;28;20048;-83
2022/03/11 08:52:36;;;;;;;26.88;12.05;;;;;;;;;;4997957;28;20037;-83
2022/03/11 08:55:03;;;;;;;25.52;14.10;;;;;;;;;;5002634;28;20099;-83
2022/03/11 08:57:29;;;;;;;29.95;14.23;;;;;;;;;;4983685;28;20125;-83
2022/03/11 08:59:55;;;;;;;31.83;14.70;;;;;;;;;;5002596;28;20120;-83
2022/03/11 09:02:24;;;;;;;27.60;11.75;;;;;;;;;;4999580;28;20104;-83
2022/03/11 09:04:50;;;;;;;30.67;13.18;;;;;;;;;;4986193;28;21104;-82
2022/03/11 09:07:16;;;;;;;25.38;13.13;;;;;;;;;;5002556;28;20838;-83
2022/03/11 09:09:42;;;;;;;32.10;14.65;;;;;;;;;;4998834;28;20493;-83
2022/03/11 09:12:08;;;;;;;24.50;12.23;;;;;;;;;;5001094;28;20191;-83
2022/03/11 09:14:35;;;;;;;24.65;12.23;;;;;;;;;;5003029;28;20092;-83
2022/03/11 09:17:14;;;;;;;28.15;14.02;;;;;;;;;;4987800;28;20127;-83
2022/03/11 09:19:42;;;;;;;28.38;11.18;;;;;;;;;;5005613;28;20405;-83
2022/03/11 09:22:17;;;;;;;29.60;13.07;;;;;;;;;;4985666;28;20093;-82
2022/03/11 09:24:44;;;;;;;30.77;14.27;;;;;;;;;;4983059;28;20413;-83
2022/03/11 09:27:11;;;;;;;28.33;14.77;;;;;;;;;;4986626;28;20140;-83
2022/03/11 09:29:38;;;;;;;27.10;13.27;;;;;;;;;;4984822;28;20034;-83
2022/03/11 09:32:05;;;;;;;28.10;14.38;;;;;;;;;;5000746;28;20631;-83
2022/03/11 09:34:31;;;;;;;30.48;15.73;;;;;;;;;;4982586;28;20030;-83
2022/03/11 09:36:57;;;;;;;31.25;15.30;;;;;;;;;;4997788;28;20041;-83
2022/03/11 09:39:24;;;;;;;26.58;12.80;;;;;;;;;;4983120;28;20081;-83
2022/03/11 09:41:50;;;;;;;26.60;12.98;;;;;;;;;;4998039;28;20034;-84
2022/03/11 09:44:17;;;;;;;33.58;13.65;;;;;;;;;;4996971;28;20052;-84
2022/03/11 09:46:44;;;;;;;27.58;14.18;;;;;;;;;;4980896;28;20120;-83
2022/03/11 09:49:13;;;;;;;24.17;13.63;;;;;;;;;;4984562;28;20026;-84
2022/03/11 09:51:43;;;;;;;22.55;11.63;;;;;;;;;;4984134;28;20584;-84
2022/03/11 09:54:09;;;;;;;23.85;12.80;;;;;;;;;;4986132;28;20049;-83
2022/03/11 09:56:36;;;;;;;28.70;13.68;;;;;;;;;;4981278;28;20039;-83
2022/03/11 09:59:02;;;;;;;21.50;11.98;;;;;;;;;;4998802;28;20029;-83
2022/03/11 10:01:28;;;;;;;28.38;14.18;;;;;;;;;;4982848;28;20037;-83
2022/03/11 10:03:54;;;;;;;25.48;12.43;;;;;;;;;;4986646;28;20121;-83
2022/03/11 10:06:37;;;;;;;28.55;14.07;;;;;;;;;;4999945;28;20040;-83
2022/03/11 10:09:04;;;;;;;31.42;14.02;;;;;;;;;;4998277;28;20774;-83
2022/03/11 10:11:30;;;;;;;25.10;12.50;;;;;;;;;;4999749;28;20524;-83
2022/03/11 10:14:07;;;;;;;28.52;14.82;;;;;;;;;;4983723;28;20040;-83
2022/03/11 10:16:33;;;;;;;28.13;11.77;;;;;;;;;;4996510;28;20041;-83
2022/03/11 10:19:13;;;;;;;29.08;14.00;;;;;;;;;;4986273;28;20136;-83
2022/03/11 10:21:44;;;;;;;33.08;13.93;;;;;;;;;;5002770;28;20029;-83
2022/03/11 10:24:11;;;;;;;31.65;15.00;;;;;;;;;;4986778;28;20032;-83
2022/03/11 10:26:41;;;;;;;29.60;13.50;;;;;;;;;;5000543;28;20038;-83
2022/03/11 10:29:18;;;;;;;28.13;14.48;;;;;;;;;;4987162;28;20775;-83
2022/03/11 10:31:46;;;;;;;23.77;10.13;;;;;;;;;;4997287;28;20041;-83
2022/03/11 10:34:18;;;;;;;25.15;13.45;;;;;;;;;;4982851;28;20477;-83
2022/03/11 10:36:52;;;;;;;25.23;12.43;;;;;;;;;;4983120;28;20034;-83
2022/03/11 10:39:22;;;;;;;27.27;14.30;;;;;;;;;;4982431;28;20415;-83
2022/03/11 10:41:50;;;;;;;27.25;14.65;;;;;;;;;;4995918;28;20045;-83
2022/03/11 10:44:21;;;;;;;28.42;14.77;;;;;;;;;;4980987;28;20383;-83
2022/03/11 10:46:47;;;;;;;26.23;13.57;;;;;;;;;;4999800;28;20069;-83
2022/03/11 10:49:23;;;;;;;26.42;14.50;;;;;;;;;;4998323;28;20393;-83
2022/03/11 10:51:49;;;;;;;21.77;10.85;;;;;;;;;;4985502;28;20062;-80
2022/03/11 10:54:15;;;;;;;26.92;14.50;;;;;;;;;;5002737;28;20092;-80
2022/03/11 10:56:43;;;;;;;27.98;13.93;;;;;;;;;;4986843;28;22937;-81
2022/03/11 10:59:21;;;;;;;25.50;14.45;;;;;;;;;;4988690;28;20029;-81
2022/03/11 11:01:48;;;;;;;24.02;13.07;;;;;;;;;;5000400;28;20790;-81
2022/03/11 11:04:16;;;;;;;22.80;12.77;;;;;;;;;;4989890;28;20145;-81
2022/03/11 11:06:43;;;;;;;26.02;13.45;;;;;;;;;;4986732;28;20046;-80
2022/03/11 11:09:10;;;;;;;26.45;15.15;;;;;;;;;;4984743;28;20041;-81
2022/03/11 11:11:36;;;;;;;26.00;13.55;;;;;;;;;;4999526;28;20402;-82
2022/03/11 11:14:05;;;;;;;23.63;13.18;;;;;;;;;;5003061;28;20026;-81
2022/03/11 11:16:38;;;;;;;23.70;13.63;;;;;;;;;;4996994;28;20032;-81
2022/03/11 11:19:18;;;;;;;26.35;13.25;;;;;;;;;;5003432;28;20100;-81
2022/03/11 11:21:45;;;;;;;23.27;14.30;;;;;;;;;;4987085;28;20397;-81
2022/03/11 11:24:19;;;;;;;26.52;15.07;;;;;;;;;;4987035;28;20030;-81
2022/03/11 11:26:46;;;;;;;26.63;15.18;;;;;;;;;;5003498;28;20030;-81
2022/03/11 11:29:13;;;;;;;30.50;16.00;;;;;;;;;;4985487;28;20030;-81
2022/03/11 11:31:41;;;;;;;30.45;13.63;;;;;;;;;;5002062;28;20536;-82
2022/03/11 11:34:27;;;;;;;24.65;14.48;;;;;;;;;;4997178;28;20393;-81
2022/03/11 11:36:53;;;;;;;25.85;14.05;;;;;;;;;;4993816;28;20030;-81
2022/03/11 11:39:19;;;;;;;24.67;13.25;;;;;;;;;;4985313;28;20497;-81
2022/03/11 11:41:53;;;;;;;22.48;11.00;;;;;;;;;;4999898;28;20053;-81
2022/03/11 11:44:20;;;;;;;22.33;12.75;;;;;;;;;;5004601;28;20025;-81
2022/03/11 11:47:06;;;;;;;22.05;12.45;;;;;;;;;;5005042;28;20034;-81
2022/03/11 11:49:44;;;;;;;28.30;13.63;;;;;;;;;;5004234;28;20522;-81
2022/03/11 11:52:12;;;;;;;23.20;13.10;;;;;;;;;;5002746;28;20042;-82
2022/03/11 11:54:39;;;;;;;22.30;12.05;;;;;;;;;;4988974;28;20029;-82
2022/03/11 11:57:07;;;;;;;26.70;13.80;;;;;;;;;;4988530;28;20033;-81
2022/03/11 11:59:36;;;;;;;23.13;12.50;;;;;;;;;;4996824;28;20256;-81
2022/03/11 12:02:22;;;;;;;20.50;12.77;;;;;;;;;;4987646;28;20044;-81
2022/03/11 12:04:48;;;;;;;25.88;13.45;;;;;;;;;;5000013;28;20397;-81
2022/03/11 12:07:16;;;;;;;21.55;11.20;;;;;;;;;;4996928;28;20479;-82
2022/03/11 12:09:42;;;;;;;22.67;12.85;;;;;;;;;;4985898;28;20041;-81
2022/03/11 12:12:20;;;;;;;21.75;12.63;;;;;;;;;;5002615;28;20044;-81
2022/03/11 12:14:52;;;;;;;21.52;13.55;;;;;;;;;;5003920;28;20035;-81
2022/03/11 12:17:35;;;;;;;19.30;11.85;;;;;;;;;;4985898;28;20434;-81
2022/03/11 12:20:21;;;;;;;28.27;11.85;;;;;;;;;;5001738;28;20054;-81
2022/03/11 12:23:06;;;;;;;26.85;13.18;;;;;;;;;;4977705;28;20050;-81
2022/03/11 12:25:37;;;;;;;24.00;12.30;;;;;;;;;;4985842;28;20765;-81
2022/03/11 12:28:11;;;;;;;24.17;12.52;;;;;;;;;;5002379;28;20034;-81
2022/03/11 12:30:54;;;;;;;22.38;12.82;;;;;;;;;;5001508;28;20030;-81
2022/03/11 12:33:34;;;;;;;23.98;13.27;;;;;;;;;;4988119;28;20034;-81
2022/03/11 12:36:01;;;;;;;27.40;13.70;;;;;;;;;;5003187;28;20033;-81
2022/03/11 12:38:28;;;;;;;20.77;12.95;;;;;;;;;;4985054;28;20395;-81
2022/03/11 12:40:55;;;;;;;24.33;12.00;;;;;;;;;;4987486;28;20044;-81
2022/03/11 12:43:22;;;;;;;24.02;11.88;;;;;;;;;;4983828;28;20030;-81
2022/03/11 12:45:49;;;;;;;24.63;12.57;;;;;;;;;;4998349;28;20548;-81
2022/03/11 12:48:16;;;;;;;20.85;11.32;;;;;;;;;;5001197;28;20030;-81
2022/03/11 12:50:43;;;;;;;21.80;12.40;;;;;;;;;;4983558;28;20674;-81
2022/03/11 12:53:09;;;;;;;20.40;13.23;;;;;;;;;;5001713;28;20118;-81
2022/03/11 12:55:37;;;;;;;23.92;12.18;;;;;;;;;;4985845;28;20038;-81
2022/03/11 12:58:15;;;;;;;22.95;11.68;;;;;;;;;;5002085;28;20108;-81
2022/03/11 13:00:42;;;;;;;24.73;12.50;;;;;;;;;;4985997;28;20045;-81
2022/03/11 13:03:09;;;;;;;20.20;11.88;;;;;;;;;;4999881;28;20109;-81
2022/03/11 13:05:36;;;;;;;30.05;11.73;;;;;;;;;;5002900;28;21038;-82
2022/03/11 13:08:18;;;;;;;23.52;11.23;;;;;;;;;;4987846;28;20022;-81
2022/03/11 13:10:46;;;;;;;17.83;11.30;;;;;;;;;;5000467;28;20660;-81
2022/03/11 13:13:12;;;;;;;15.93;10.30;;;;;;;;;;5002805;28;20374;-82
2022/03/11 13:15:39;;;;;;;24.95;12.32;;;;;;;;;;4986330;28;20042;-81
2022/03/11 13:18:07;;;;;;;21.15;12.25;;;;;;;;;;5004274;28;20033;-81
2022/03/11 13:20:45;;;;;;;19.23;10.00;;;;;;;;;;4999351;28;20045;-81
2022/03/11 13:23:23;;;;;;;20.48;10.40;;;;;;;;;;4995803;28;20030;-81
2022/03/11 13:25:57;;;;;;;28.65;11.43;;;;;;;;;;4981812;28;20034;-81
2022/03/11 13:28:23;;;;;;;20.23;10.45;;;;;;;;;;5000533;28;20080;-81
2022/03/11 13:30:49;;;;;;;17.85;10.52;;;;;;;;;;4987157;28;20461;-81
2022/03/11 13:33:26;;;;;;;19.90;10.98;;;;;;;;;;5005193;28;20109;-82
2022/03/11 13:36:05;;;;;;;20.95;11.13;;;;;;;;;;4986339;28;20126;-81
2022/03/11 13:38:39;;;;;;;20.20;10.30;;;;;;;;;;4983121;28;20080;-81
2022/03/11 13:41:09;;;;;;;19.60;11.90;;;;;;;;;;4989650;28;20067;-81
2022/03/11 13:43:37;;;;;;;20.48;10.27;;;;;;;;;;5006853;28;20030;-81
2022/03/11 13:46:03;;;;;;;21.33;10.05;;;;;;;;;;4982955;28;20034;-81
2022/03/11 13:48:33;;;;;;;18.92;11.63;;;;;;;;;;5001368;28;20036;-82
2022/03/11 13:51:01;;;;;;;19.08;10.20;;;;;;;;;;4981603;28;20425;-81
2022/03/11 13:53:27;;;;;;;18.95;10.68;;;;;;;;;;4989041;28;20108;-82
2022/03/11 13:55:54;;;;;;;15.88;9.45;;;;;;;;;;5003098;28;20486;-81
2022/03/11 13:58:21;;;;;;;22.35;11.15;;;;;;;;;;4998303;28;20033;-81
2022/03/11 14:00:48;;;;;;;13.38;8.38;;;;;;;;;;4982157;28;20486;-81
2022/03/11 14:03:18;;;;;;;25.33;9.98;;;;;;;;;;4994633;28;20380;-81
2022/03/11 14:05:45;;;;;;;16.60;8.55;;;;;;;;;;5001950;28;20454;-81
2022/03/11 14:08:14;;;;;;;18.10;9.52;;;;;;;;;;4982457;28;20037;-82
2022/03/11 14:10:45;;;;;;;20.27;10.23;;;;;;;;;;5001749;28;20556;-81
2022/03/11 14:13:13;;;;;;;17.35;9.55;;;;;;;;;;4986988;28;20389;-81
2022/03/11 14:15:50;;;;;;;19.65;9.18;;;;;;;;;;4995452;28;20119;-81
2022/03/11 14:18:19;;;;;;;16.38;10.00;;;;;;;;;;5000756;28;20430;-81
2022/03/11 14:20:45;;;;;;;19.52;9.20;;;;;;;;;;5001882;28;20081;-81
2022/03/11 14:23:12;;;;;;;20.00;10.73;;;;;;;;;;4982317;28;20038;-81